Time;durP1;ratioP1;P1;durP2;ratioP2;P2;SDS_P1;SDS_P2;PMS_P1;PMS_P2;Temp;Humidity;BMP_temperature;BMP_pressure;BME280_temperature;BME280_humidity;BME280_pressure;Samples;Min_cycle;Max_cycle;Signal;HPM_P1;HPM_P2
2021/01/14 00:01:00;;;;;;;3.25;1.63;;;;;;;-0.11;92.77;99460.03;5004240;28;20053;-55
2021/01/14 00:03:26;;;;;;;3.80;2.10;;;;;;;-0.34;93.32;99448.84;5005740;28;20049;-55
2021/01/14 00:06:09;;;;;;;3.50;1.73;;;;;;;-0.12;92.93;99450.75;5001756;28;20469;-57
2021/01/14 00:08:36;;;;;;;2.25;1.95;;;;;;;-0.10;92.64;99453.34;5005115;28;20053;-55
2021/01/14 00:11:03;;;;;;;4.65;2.47;;;;;;;-0.03;93.14;99443.66;5004981;28;20054;-52
2021/01/14 00:13:29;;;;;;;3.85;2.13;;;;;;;0.01;92.88;99446.31;5004975;28;20078;-58
2021/01/14 00:15:55;;;;;;;5.85;2.65;;;;;;;-0.13;92.73;99446.53;5000291;28;20053;-58
2021/01/14 00:18:22;;;;;;;3.67;2.63;;;;;;;-0.07;92.94;99445.94;5005091;28;20054;-57
2021/01/14 00:20:48;;;;;;;3.10;2.10;;;;;;;-0.17;92.93;99446.31;5005777;28;20146;-55
2021/01/14 00:23:14;;;;;;;4.50;2.17;;;;;;;0.01;93.39;99443.81;5005073;28;20046;-59
2021/01/14 00:25:41;;;;;;;5.32;2.25;;;;;;;-0.03;93.57;99441.13;5004719;28;20177;-56
2021/01/14 00:28:08;;;;;;;3.58;2.03;;;;;;;-0.30;94.61;99439.81;5004895;28;20100;-55
2021/01/14 00:30:34;;;;;;;5.93;2.40;;;;;;;-0.19;95.49;99442.84;5005426;28;20073;-56
2021/01/14 00:33:01;;;;;;;4.88;2.88;;;;;;;-0.11;96.52;99442.41;5005588;28;20526;-56
2021/01/14 00:35:28;;;;;;;5.97;2.75;;;;;;;-0.42;97.36;99435.03;5005342;28;20498;-55
2021/01/14 00:37:55;;;;;;;7.57;3.63;;;;;;;-0.36;98.46;99447.06;5005014;28;20050;-55
2021/01/14 00:40:25;;;;;;;6.45;2.90;;;;;;;-0.17;99.75;99442.13;5004849;28;20054;-54
2021/01/14 00:43:08;;;;;;;6.05;3.65;;;;;;;-0.39;99.97;99440.22;5004338;28;20054;-57
2021/01/14 00:45:36;;;;;;;6.38;3.63;;;;;;;-0.37;100.00;99442.81;5001275;28;20074;-58
2021/01/14 00:48:03;;;;;;;7.57;3.60;;;;;;;-0.34;100.00;99440.44;5004732;28;20046;-59
2021/01/14 00:50:30;;;;;;;4.97;3.20;;;;;;;-0.24;100.00;99439.25;5005114;28;20495;-57
2021/01/14 00:52:56;;;;;;;6.05;3.15;;;;;;;-0.30;100.00;99445.69;4999935;28;20054;-56
2021/01/14 00:55:23;;;;;;;6.93;3.25;;;;;;;-0.28;100.00;99454.19;5004268;28;20057;-57
2021/01/14 00:57:49;;;;;;;5.05;3.50;;;;;;;-0.26;100.00;99452.59;5005054;28;20113;-55
2021/01/14 01:00:21;;;;;;;4.47;3.70;;;;;;;-0.31;100.00;99451.53;5003524;28;20107;-56
2021/01/14 01:02:50;;;;;;;9.32;4.00;;;;;;;-0.32;100.00;99459.88;5005072;28;20045;-58
2021/01/14 01:05:19;;;;;;;6.25;3.58;;;;;;;-0.33;100.00;99453.09;5012640;28;20107;-53
2021/01/14 01:07:59;;;;;;;7.05;3.63;;;;;;;-0.32;100.00;99452.31;5004040;28;20050;-53
2021/01/14 01:10:27;;;;;;;5.47;4.47;;;;;;;-0.27;100.00;99457.56;5003901;28;20056;-54
2021/01/14 01:12:55;;;;;;;4.35;3.78;;;;;;;-0.39;100.00;99462.84;5004502;28;20057;-56
2021/01/14 01:15:23;;;;;;;6.28;3.75;;;;;;;-0.34;100.00;99460.56;5004111;28;20053;-53
2021/01/14 01:17:50;;;;;;;8.43;4.18;;;;;;;-0.34;100.00;99463.94;5004703;28;20468;-58
2021/01/14 01:20:16;;;;;;;7.18;3.75;;;;;;;-0.29;100.00;99462.50;5001935;28;20065;-55
2021/01/14 01:22:43;;;;;;;4.82;3.40;;;;;;;-0.20;100.00;99478.84;5004426;28;20080;-53
2021/01/14 01:25:10;;;;;;;8.13;4.53;;;;;;;-0.27;100.00;99477.69;5004727;28;20107;-58
2021/01/14 01:27:37;;;;;;;4.88;3.60;;;;;;;-0.13;100.00;99484.25;5001847;28;20513;-59
2021/01/14 01:30:06;;;;;;;5.53;4.35;;;;;;;-0.13;100.00;99471.69;5003995;28;20066;-52
2021/01/14 01:32:33;;;;;;;5.00;3.40;;;;;;;-0.17;100.00;99479.88;5003964;28;20050;-53
2021/01/14 01:34:59;;;;;;;5.90;3.38;;;;;;;-0.21;100.00;99479.63;5003886;28;20053;-59
2021/01/14 01:37:25;;;;;;;6.43;3.33;;;;;;;-0.36;100.00;99493.19;5003865;28;20057;-56
2021/01/14 01:39:52;;;;;;;5.78;3.40;;;;;;;-0.18;100.00;99489.88;5004039;28;20139;-55
2021/01/14 01:42:18;;;;;;;4.85;3.28;;;;;;;-0.19;100.00;99491.47;5004503;28;20112;-57
2021/01/14 01:44:45;;;;;;;3.42;3.13;;;;;;;-0.23;100.00;99507.25;5003875;28;20117;-57
2021/01/14 01:47:11;;;;;;;4.65;2.97;;;;;;;-0.12;100.00;99498.56;5003843;28;20120;-56
2021/01/14 01:49:40;;;;;;;4.75;3.05;;;;;;;-0.23;100.00;99503.84;5004005;28;20050;-54
2021/01/14 01:52:07;;;;;;;4.68;3.40;;;;;;;-0.16;100.00;99504.22;5003998;28;20085;-56
2021/01/14 01:54:35;;;;;;;5.20;3.40;;;;;;;-0.10;100.00;99503.66;5003798;28;20054;-56
2021/01/14 01:57:04;;;;;;;2.78;2.47;;;;;;;-0.08;100.00;99517.19;5002544;28;20096;-58
2021/01/14 01:59:32;;;;;;;3.17;2.88;;;;;;;-0.03;100.00;99516.63;5001784;28;20046;-55
2021/01/14 02:02:19;;;;;;;7.93;3.10;;;;;;;-0.05;100.00;99515.69;5003321;28;20088;-56
2021/01/14 02:04:46;;;;;;;4.82;2.85;;;;;;;-0.02;100.00;99530.06;4989004;28;20053;-55
2021/01/14 02:07:25;;;;;;;4.40;2.90;;;;;;;-0.03;100.00;99534.22;5003340;28;20108;-58
2021/01/14 02:09:55;;;;;;;3.20;2.42;;;;;;;0.04;100.00;99526.97;5003619;28;20045;-54
2021/01/14 02:12:29;;;;;;;4.40;2.20;;;;;;;-0.26;100.00;99534.75;5003458;28;20054;-57
2021/01/14 02:14:57;;;;;;;3.78;2.40;;;;;;;-0.08;100.00;99547.38;5003787;28;20469;-53
2021/01/14 02:17:26;;;;;;;4.25;2.30;;;;;;;0.17;100.00;99550.28;5003861;28;20104;-54
2021/01/14 02:19:55;;;;;;;2.50;2.30;;;;;;;-0.02;100.00;99566.16;5003515;28;20090;-57
2021/01/14 02:22:38;;;;;;;4.35;3.03;;;;;;;-0.01;100.00;99570.38;5003690;28;20056;-56
2021/01/14 02:25:22;;;;;;;2.50;2.22;;;;;;;0.10;100.00;99577.63;4999975;28;20494;-55
2021/01/14 02:27:50;;;;;;;3.67;1.95;;;;;;;0.08;100.00;99585.06;5022712;28;20095;-53
2021/01/14 02:30:17;;;;;;;3.33;2.40;;;;;;;0.17;100.00;99599.75;5023916;28;20127;-57
2021/01/14 02:32:44;;;;;;;1.75;1.58;;;;;;;0.15;100.00;99614.81;5023294;28;20065;-57
2021/01/14 02:35:11;;;;;;;2.72;1.55;;;;;;;0.33;100.00;99613.97;5023091;28;20275;-52
2021/01/14 02:37:38;;;;;;;1.50;1.40;;;;;;;0.28;100.00;99630.50;5023057;28;20064;-55
2021/01/14 02:40:05;;;;;;;2.03;1.23;;;;;;;0.03;100.00;99646.91;5023569;28;20057;-57
2021/01/14 02:42:31;;;;;;;1.38;1.23;;;;;;;0.22;100.00;99659.59;5023127;28;20053;-56
2021/01/14 02:44:58;;;;;;;1.35;1.00;;;;;;;0.12;100.00;99667.50;5023318;28;20116;-56
2021/01/14 02:47:26;;;;;;;0.85;0.85;;;;;;;-0.03;100.00;99677.66;5023447;28;20049;-54
2021/01/14 02:49:57;;;;;;;1.17;0.80;;;;;;;0.06;100.00;99688.97;5022770;28;20143;-55
2021/01/14 02:52:25;;;;;;;0.57;0.57;;;;;;;-0.06;100.00;99697.59;5023256;28;20049;-58
2021/01/14 02:54:52;;;;;;;1.10;0.90;;;;;;;-0.06;100.00;99705.16;5023205;28;20085;-53
2021/01/14 02:57:18;;;;;;;1.15;0.70;;;;;;;-0.11;100.00;99716.63;5023441;28;20057;-53
2021/01/14 02:59:45;;;;;;;1.55;0.90;;;;;;;-0.15;100.00;99732.34;5022923;28;20053;-55
2021/01/14 03:02:11;;;;;;;1.05;0.65;;;;;;;0.01;100.00;99734.03;5023783;28;20115;-50
2021/01/14 03:04:39;;;;;;;0.70;0.70;;;;;;;0.05;100.00;99737.56;5022692;28;20045;-56
2021/01/14 03:07:05;;;;;;;2.30;0.90;;;;;;;-0.01;100.00;99745.66;5022813;28;20041;-56
2021/01/14 03:09:32;;;;;;;0.73;0.70;;;;;;;-0.04;100.00;99763.13;5025672;28;20042;-54
2021/01/14 03:11:58;;;;;;;0.60;0.60;;;;;;;0.05;100.00;99772.78;5026766;28;20073;-55
2021/01/14 03:14:24;;;;;;;0.73;0.70;;;;;;;0.14;100.00;99773.28;5026544;28;20049;-54
2021/01/14 03:16:51;;;;;;;1.05;0.90;;;;;;;0.21;100.00;99795.47;5026373;28;20139;-55
2021/01/14 03:19:17;;;;;;;1.60;1.10;;;;;;;0.11;100.00;99801.69;5006532;28;20112;-56
2021/01/14 03:21:44;;;;;;;1.52;1.00;;;;;;;0.17;99.84;99809.53;5006587;28;20045;-52
2021/01/14 03:24:10;;;;;;;1.67;1.58;;;;;;;-0.02;99.30;99820.28;5006889;28;20096;-55
2021/01/14 03:26:38;;;;;;;1.90;1.70;;;;;;;-0.09;99.75;99828.31;5006179;28;20046;-57
2021/01/14 03:29:04;;;;;;;2.35;1.85;;;;;;;0.18;99.71;99836.44;5006856;28;20096;-52
2021/01/14 03:31:30;;;;;;;2.22;1.95;;;;;;;0.18;99.54;99846.50;5006359;28;20046;-55
2021/01/14 03:33:57;;;;;;;2.80;2.42;;;;;;;0.11;99.06;99854.53;5006427;28;20053;-58
2021/01/14 03:36:23;;;;;;;4.18;2.97;;;;;;;0.28;99.09;99852.91;5006179;28;20053;-51
2021/01/14 03:38:50;;;;;;;4.65;2.67;;;;;;;0.09;99.05;99858.59;5006411;28;20046;-58
2021/01/14 03:41:18;;;;;;;8.40;4.05;;;;;;;0.09;98.92;99858.59;5005778;28;20046;-55
2021/01/14 03:43:45;;;;;;;8.70;4.20;;;;;;;-0.08;99.59;99875.31;5006410;28;20510;-54
2021/01/14 03:46:17;;;;;;;6.78;4.13;;;;;;;0.13;99.92;99883.16;5006063;28;20053;-55
2021/01/14 03:48:45;;;;;;;7.97;4.70;;;;;;;0.21;100.00;99891.13;5006049;28;20054;-53
2021/01/14 03:51:22;;;;;;;7.63;4.85;;;;;;;0.07;100.00;99889.53;5006097;28;21008;-56
2021/01/14 03:53:51;;;;;;;9.23;4.70;;;;;;;0.07;100.00;99897.06;5006722;28;20115;-56
2021/01/14 03:56:18;;;;;;;8.10;4.63;;;;;;;0.20;100.00;99907.03;5004056;28;20045;-52
2021/01/14 03:58:45;;;;;;;9.50;5.05;;;;;;;0.19;99.99;99910.34;5005717;28;20108;-56
2021/01/14 04:01:13;;;;;;;9.70;5.22;;;;;;;0.22;99.84;99920.53;5005937;28;20054;-56
2021/01/14 04:03:40;;;;;;;13.10;5.50;;;;;;;-0.04;100.00;99922.53;5005987;28;20073;-54
2021/01/14 04:06:07;;;;;;;12.98;5.85;;;;;;;0.08;100.00;99927.34;5005897;28;20046;-55
2021/01/14 04:08:34;;;;;;;13.55;6.32;;;;;;;0.05;100.00;99948.94;5005534;28;20049;-51
2021/01/14 04:11:01;;;;;;;12.15;6.32;;;;;;;0.08;100.00;99951.66;5006063;28;20081;-56
2021/01/14 04:13:27;;;;;;;16.70;6.65;;;;;;;0.28;100.00;99956.16;5013820;28;20103;-60
2021/01/14 04:15:53;;;;;;;19.42;7.53;;;;;;;0.39;100.00;99969.31;5005484;28;20050;-56
2021/01/14 04:18:20;;;;;;;20.00;7.53;;;;;;;0.38;100.00;99973.47;5005595;28;20061;-58
2021/01/14 04:20:46;;;;;;;19.15;7.50;;;;;;;0.34;100.00;99978.28;5004346;28;20053;-57
2021/01/14 04:23:13;;;;;;;19.05;7.78;;;;;;;0.25;100.00;99996.25;5005566;28;20449;-59
2021/01/14 04:25:39;;;;;;;20.85;7.85;;;;;;;0.17;100.00;99997.47;5005133;28;20049;-54
2021/01/14 04:28:05;;;;;;;23.25;9.13;;;;;;;0.57;100.00;99998.00;5005661;28;20061;-60
2021/01/14 04:30:34;;;;;;;25.30;10.18;;;;;;;0.62;99.47;100015.91;5005339;28;20112;-56
2021/01/14 04:33:13;;;;;;;21.67;8.68;;;;;;;0.59;99.25;100016.56;5010176;28;20283;-57
2021/01/14 04:35:49;;;;;;;23.95;9.73;;;;;;;0.41;98.98;100028.16;5003996;28;20049;-57
2021/01/14 04:38:16;;;;;;;25.90;9.85;;;;;;;0.52;99.27;100031.28;5005483;28;20108;-56
2021/01/14 04:40:44;;;;;;;27.90;10.23;;;;;;;0.52;98.80;100047.28;5005507;28;20120;-57
2021/01/14 04:43:12;;;;;;;23.98;10.27;;;;;;;0.49;99.24;100045.44;5005706;28;20054;-56
2021/01/14 04:45:40;;;;;;;24.17;9.60;;;;;;;0.49;99.29;100057.16;5005580;28;20050;-58
2021/01/14 04:48:10;;;;;;;20.48;9.32;;;;;;;0.54;97.81;100068.34;5004974;28;20050;-56
2021/01/14 04:50:48;;;;;;;18.90;9.02;;;;;;;0.26;97.60;100071.00;4999562;28;20564;-58
2021/01/14 04:53:24;;;;;;;21.40;9.18;;;;;;;0.22;98.59;100081.66;5003006;28;20053;-56
2021/01/14 04:55:58;;;;;;;21.70;10.50;;;;;;;0.40;98.67;100079.31;5005249;28;20073;-57
2021/01/14 04:58:33;;;;;;;20.48;9.63;;;;;;;0.39;98.09;100095.22;5005286;28;20041;-60
2021/01/14 05:01:05;;;;;;;23.63;10.40;;;;;;;0.21;97.38;100107.63;5000833;28;20530;-56
2021/01/14 05:03:34;;;;;;;25.20;10.93;;;;;;;0.58;98.07;100108.06;5005177;28;20048;-58
2021/01/14 05:06:02;;;;;;;20.48;10.48;;;;;;;0.63;97.95;100116.72;5005249;28;20586;-59
2021/01/14 05:08:31;;;;;;;21.95;11.20;;;;;;;0.39;98.06;100136.38;5003419;28;20053;-60
2021/01/14 05:10:59;;;;;;;25.00;11.45;;;;;;;0.36;98.78;100135.31;4994648;28;20096;-51
2021/01/14 05:13:31;;;;;;;25.52;10.68;;;;;;;0.77;98.47;100147.72;5004652;28;20065;-56
2021/01/14 05:15:58;;;;;;;25.90;10.88;;;;;;;0.82;97.50;100153.03;5000140;28;20112;-49
2021/01/14 05:18:30;;;;;;;27.35;10.90;;;;;;;0.60;97.44;100156.88;5004486;28;20046;-57
2021/01/14 05:20:58;;;;;;;24.08;10.23;;;;;;;0.58;98.54;100162.59;5000195;28;20461;-53
2021/01/14 05:23:31;;;;;;;31.60;10.25;;;;;;;0.61;99.51;100172.88;5004547;28;20265;-51
2021/01/14 05:26:01;;;;;;;28.35;11.02;;;;;;;0.70;98.84;100181.81;4999871;28;20038;-56
2021/01/14 05:28:30;;;;;;;24.88;10.60;;;;;;;0.51;98.77;100179.03;5004469;28;20049;-54
2021/01/14 05:31:20;;;;;;;25.38;10.25;;;;;;;0.81;98.57;100187.44;4998996;28;20056;-55
2021/01/14 05:34:00;;;;;;;22.63;9.57;;;;;;;0.77;98.59;100196.47;5003412;28;20048;-54
2021/01/14 05:36:47;;;;;;;26.13;10.48;;;;;;;0.83;98.98;100195.09;5003479;28;20430;-51
2021/01/14 05:39:18;;;;;;;26.80;10.40;;;;;;;0.37;99.02;100210.97;5001537;28;20057;-53
2021/01/14 05:41:48;;;;;;;19.65;10.48;;;;;;;0.49;99.77;100216.72;5003644;28;20119;-51
2021/01/14 05:44:34;;;;;;;27.85;10.20;;;;;;;0.35;99.85;100211.66;5003584;28;20052;-47
2021/01/14 05:47:20;;;;;;;25.55;10.57;;;;;;;0.57;100.00;100223.84;5018429;28;20069;-52
2021/01/14 05:50:06;;;;;;;20.42;9.65;;;;;;;0.44;99.85;100235.72;5021144;28;20410;-57
2021/01/14 05:52:33;;;;;;;20.40;9.50;;;;;;;0.39;100.00;100246.31;5022198;28;20049;-53
2021/01/14 05:55:09;;;;;;;22.65;9.75;;;;;;;0.68;99.65;100250.53;5023734;28;20041;-56
2021/01/14 05:57:40;;;;;;;21.10;10.48;;;;;;;0.94;98.77;100259.59;5021679;28;20055;-47
2021/01/14 06:00:13;;;;;;;19.00;10.25;;;;;;;0.43;98.97;100261.69;5021905;28;20052;-50
2021/01/14 06:02:40;;;;;;;19.77;10.15;;;;;;;0.71;100.00;100271.72;5020454;28;20046;-47
2021/01/14 06:05:28;;;;;;;25.63;11.00;;;;;;;0.52;99.52;100279.00;5022803;28;20053;-53
2021/01/14 06:07:59;;;;;;;17.00;9.25;;;;;;;0.90;99.95;100283.75;5017526;28;20045;-49
2021/01/14 06:10:33;;;;;;;20.23;9.68;;;;;;;0.77;98.60;100284.69;5023419;28;20071;-51
2021/01/14 06:13:00;;;;;;;16.92;8.52;;;;;;;0.74;99.53;100297.13;5017883;28;20076;-48
2021/01/14 06:15:27;;;;;;;16.88;8.85;;;;;;;0.83;98.35;100311.00;5022737;28;20049;-48
2021/01/14 06:17:54;;;;;;;16.10;8.63;;;;;;;0.84;97.72;100302.69;5023121;28;20053;-51
2021/01/14 06:20:20;;;;;;;17.55;9.60;;;;;;;0.57;98.48;100312.88;5001945;28;20111;-50
2021/01/14 06:22:48;;;;;;;15.70;8.75;;;;;;;1.02;98.88;100321.41;5003446;28;20050;-48
2021/01/14 06:25:15;;;;;;;17.83;9.50;;;;;;;0.73;98.74;100324.72;5003247;28;20121;-57
2021/01/14 06:27:54;;;;;;;16.15;9.25;;;;;;;0.47;98.85;100325.72;5003165;28;20453;-53
2021/01/14 06:30:21;;;;;;;17.10;9.18;;;;;;;0.40;99.65;100324.47;5005320;28;20557;-51
2021/01/14 06:33:00;;;;;;;22.40;10.70;;;;;;;0.54;98.77;100332.84;5009220;28;20065;-54
2021/01/14 06:35:28;;;;;;;16.45;9.25;;;;;;;0.59;99.37;100345.72;5023271;28;20053;-53
2021/01/14 06:38:01;;;;;;;17.23;9.70;;;;;;;0.48;99.62;100360.19;5024424;28;20053;-58
2021/01/14 06:40:29;;;;;;;17.23;9.32;;;;;;;0.63;100.00;100373.69;5023143;28;20053;-50
2021/01/14 06:42:58;;;;;;;19.50;9.63;;;;;;;0.59;98.59;100379.34;5018353;28;20045;-54
2021/01/14 06:45:41;;;;;;;18.00;11.02;;;;;;;0.42;99.66;100382.50;5026332;28;20053;-57
2021/01/14 06:48:14;;;;;;;17.55;9.73;;;;;;;0.64;100.00;100390.56;5022880;28;20056;-52
2021/01/14 06:50:49;;;;;;;18.27;9.80;;;;;;;0.26;99.79;100393.25;5024914;28;20042;-52
2021/01/14 06:53:21;;;;;;;15.63;8.48;;;;;;;0.63;99.87;100408.97;5026434;28;20174;-52
2021/01/14 06:55:48;;;;;;;16.83;9.27;;;;;;;0.46;99.99;100414.63;5026212;28;20045;-48
2021/01/14 06:58:19;;;;;;;18.55;10.50;;;;;;;0.49;100.00;100422.38;5026491;28;20053;-52
2021/01/14 07:00:50;;;;;;;19.45;10.98;;;;;;;0.37;100.00;100426.66;5026577;28;20053;-49
2021/01/14 07:03:23;;;;;;;15.18;9.32;;;;;;;0.68;100.00;100437.84;5026339;28;20057;-57
2021/01/14 07:05:55;;;;;;;19.88;10.55;;;;;;;0.56;100.00;100433.72;5010708;28;20053;-51
2021/01/14 07:08:24;;;;;;;15.73;10.00;;;;;;;0.67;99.26;100440.28;5004294;28;20057;-59
2021/01/14 07:11:03;;;;;;;19.27;10.85;;;;;;;0.39;99.36;100448.66;5026194;28;20502;-57
2021/01/14 07:13:33;;;;;;;23.23;11.27;;;;;;;0.66;100.00;100458.69;5024872;28;20042;-57
2021/01/14 07:16:00;;;;;;;21.15;10.70;;;;;;;0.35;100.00;100468.50;5020994;28;20168;-55
2021/01/14 07:18:31;;;;;;;18.73;9.82;;;;;;;0.72;100.00;100476.69;5025750;28;20049;-54
2021/01/14 07:21:19;;;;;;;20.33;10.38;;;;;;;0.58;98.80;100487.56;5021259;28;20107;-50
2021/01/14 07:23:56;;;;;;;19.17;10.05;;;;;;;0.50;99.50;100487.97;5024571;28;20053;-55
2021/01/14 07:26:23;;;;;;;18.08;9.48;;;;;;;0.35;99.46;100491.19;5006762;28;20069;-50
2021/01/14 07:28:51;;;;;;;20.42;10.95;;;;;;;0.30;99.52;100502.59;5005424;28;20095;-53
2021/01/14 07:31:26;;;;;;;19.33;10.50;;;;;;;0.28;99.73;100507.56;5005824;28;20467;-54
2021/01/14 07:33:55;;;;;;;16.10;9.68;;;;;;;0.60;98.76;100512.09;5006045;28;20057;-52
2021/01/14 07:36:25;;;;;;;19.70;10.60;;;;;;;0.18;98.83;100521.19;5004393;28;20499;-55
2021/01/14 07:38:55;;;;;;;17.67;9.93;;;;;;;0.25;99.28;100540.97;5010817;28;20057;-58
2021/01/14 07:41:23;;;;;;;19.50;11.13;;;;;;;0.37;99.67;100540.88;5025816;28;20310;-52
2021/01/14 07:43:50;;;;;;;20.80;10.60;;;;;;;0.29;99.27;100546.19;5026384;28;20052;-51
2021/01/14 07:46:25;;;;;;;22.38;10.63;;;;;;;0.18;98.91;100565.63;5026219;28;20083;-56
2021/01/14 07:48:53;;;;;;;19.30;10.27;;;;;;;0.30;98.34;100563.03;5026192;28;20041;-54
2021/01/14 07:51:21;;;;;;;21.42;10.90;;;;;;;0.42;98.19;100569.75;5025953;28;20045;-49
2021/01/14 07:54:07;;;;;;;21.60;12.38;;;;;;;-0.16;99.12;100572.63;5025109;28;20045;-49
2021/01/14 07:56:52;;;;;;;37.17;20.15;;;;;;;0.10;98.97;100577.75;5024137;28;20057;-50
2021/01/14 07:59:29;;;;;;;28.52;15.80;;;;;;;0.18;98.14;100575.69;5025418;28;20064;-58
2021/01/14 08:02:07;;;;;;;45.83;27.08;;;;;;;-0.15;97.46;100597.00;5020025;28;20486;-54
2021/01/14 08:04:52;;;;;;;60.22;39.22;;;;;;;-0.02;97.76;100600.44;5023301;28;20527;-52
2021/01/14 08:07:20;;;;;;;37.22;22.88;;;;;;;0.29;97.76;100612.53;5023090;28;20056;-59
2021/01/14 08:09:48;;;;;;;31.23;18.85;;;;;;;0.11;97.07;100611.34;5021551;28;20534;-55
2021/01/14 08:12:15;;;;;;;20.48;11.20;;;;;;;0.34;97.00;100612.84;5022435;28;20123;-53
2021/01/14 08:14:41;;;;;;;16.92;9.43;;;;;;;0.48;96.87;100610.44;5021817;28;20041;-54
2021/01/14 08:17:27;;;;;;;19.55;11.27;;;;;;;0.76;93.93;100632.34;5019198;28;20540;-49
2021/01/14 08:19:55;;;;;;;59.30;32.07;;;;;;;1.25;94.49;100632.91;5024374;28;20099;-54
2021/01/14 08:22:21;;;;;;;30.20;15.43;;;;;;;1.26;92.93;100647.28;5024953;28;20282;-54
2021/01/14 08:24:59;;;;;;;55.03;33.58;;;;;;;0.97;93.98;100642.91;5024562;28;20072;-48
2021/01/14 08:27:29;;;;;;;34.10;20.55;;;;;;;1.30;93.45;100655.91;5015678;28;20049;-58
2021/01/14 08:30:04;;;;;;;23.80;14.80;;;;;;;1.06;92.62;100657.75;5008093;28;20802;-58
2021/01/14 08:32:45;;;;;;;25.33;17.27;;;;;;;1.17;92.78;100666.88;5005844;28;20046;-53
2021/01/14 08:35:24;;;;;;;18.92;12.80;;;;;;;0.79;94.01;100672.88;5024184;28;20041;-54
2021/01/14 08:38:16;;;;;;;13.45;9.88;;;;;;;0.80;94.47;100673.75;5004890;28;20046;-55
2021/01/14 08:40:43;;;;;;;13.38;8.25;;;;;;;0.98;94.88;100674.94;5023601;28;20055;-57
2021/01/14 08:43:11;;;;;;;16.67;8.38;;;;;;;0.65;95.62;100672.00;5024300;28;20505;-51
2021/01/14 08:45:46;;;;;;;12.38;7.20;;;;;;;0.65;94.51;100679.56;5022826;28;20053;-50
2021/01/14 08:48:28;;;;;;;15.95;9.07;;;;;;;0.33;95.77;100679.97;5024204;28;20136;-53
2021/01/14 08:50:54;;;;;;;12.65;8.13;;;;;;;0.92;95.98;100687.13;5008171;28;20490;-54
2021/01/14 08:53:35;;;;;;;13.45;8.13;;;;;;;0.41;95.43;100696.44;5003461;28;20042;-55
2021/01/14 08:56:04;;;;;;;15.98;8.15;;;;;;;0.35;95.96;100698.56;5010456;28;20061;-54
2021/01/14 08:58:38;;;;;;;23.45;11.48;;;;;;;0.45;96.87;100707.59;5004434;28;20437;-48
2021/01/14 09:01:26;;;;;;;52.97;24.52;;;;;;;0.83;96.53;100719.31;5005140;28;20053;-46
2021/01/14 09:03:54;;;;;;;32.03;17.20;;;;;;;1.00;95.07;100718.75;5004918;28;20050;-43
2021/01/14 09:06:38;;;;;;;14.85;7.03;;;;;;;1.74;92.53;100720.06;5024212;28;20042;-48
2021/01/14 09:09:07;;;;;;;12.20;7.25;;;;;;;1.77;92.46;100729.47;5020195;28;20053;-47
2021/01/14 09:11:35;;;;;;;19.52;12.95;;;;;;;1.86;91.40;100736.75;5023628;28;20053;-49
2021/01/14 09:14:06;;;;;;;34.63;23.15;;;;;;;1.66;92.80;100732.97;5024509;28;20053;-50
2021/01/14 09:16:33;;;;;;;23.08;14.98;;;;;;;2.18;92.25;100737.03;5023697;28;20080;-52
2021/01/14 09:19:00;;;;;;;13.65;10.77;;;;;;;1.72;92.93;100744.34;5023728;28;20049;-49
2021/01/14 09:21:34;;;;;;;13.82;7.68;;;;;;;2.37;91.30;100745.72;5023945;28;20053;-50
2021/01/14 09:24:10;;;;;;;8.98;6.30;;;;;;;2.37;88.90;100755.81;5019885;28;20053;-52
2021/01/14 09:26:43;;;;;;;11.88;5.75;;;;;;;2.16;89.75;100756.25;5021236;28;20099;-53
2021/01/14 09:29:15;;;;;;;10.98;5.50;;;;;;;2.22;89.81;100765.88;5023902;28;20060;-52
2021/01/14 09:31:42;;;;;;;7.60;4.43;;;;;;;2.92;87.46;100762.44;5021967;28;20572;-54
2021/01/14 09:34:09;;;;;;;7.90;4.70;;;;;;;3.10;87.67;100760.06;5023476;28;20592;-54
2021/01/14 09:36:36;;;;;;;6.95;4.20;;;;;;;2.97;86.86;100767.75;5023259;28;20041;-54
2021/01/14 09:39:13;;;;;;;8.88;4.40;;;;;;;2.20;88.95;100773.34;5023523;28;20067;-50
2021/01/14 09:41:40;;;;;;;8.48;5.22;;;;;;;2.75;88.26;100780.81;5021364;28;20497;-51
2021/01/14 09:44:15;;;;;;;7.75;4.68;;;;;;;2.06;91.26;100785.94;5023601;28;20057;-52
2021/01/14 09:46:43;;;;;;;7.18;4.43;;;;;;;2.42;89.70;100790.69;5021622;28;20471;-48
2021/01/14 09:49:15;;;;;;;15.38;8.10;;;;;;;2.18;90.67;100790.06;5023780;28;20053;-52
2021/01/14 09:51:43;;;;;;;60.40;27.33;;;;;;;2.46;90.75;100792.59;5021272;28;20563;-53
2021/01/14 09:54:11;;;;;;;41.40;19.30;;;;;;;2.29;90.86;100801.69;5023445;28;20144;-52
2021/01/14 09:56:41;;;;;;;59.42;27.88;;;;;;;2.31;91.10;100804.31;5010698;28;20127;-53
2021/01/14 09:59:14;;;;;;;28.35;15.27;;;;;;;2.44;91.62;100809.31;5012293;28;20053;-51
2021/01/14 10:01:50;;;;;;;25.38;13.73;;;;;;;2.35;92.32;100802.84;5007376;28;20053;-50
2021/01/14 10:04:18;;;;;;;;;;;;;;;2.86;91.82;100804.19;5016897;28;20147;-48
2021/01/14 10:06:53;;;;;;;10.65;5.80;;;;;;;2.93;88.54;100817.28;5014558;28;19929;-53
2021/01/14 10:09:25;;;;;;;11.18;6.13;;;;;;;2.63;90.44;100821.38;5014629;28;20369;-54
2021/01/14 10:12:03;;;;;;;18.05;10.57;;;;;;;3.04;89.04;100816.22;5002341;28;20730;-55
2021/01/14 10:14:30;;;;;;;16.88;10.05;;;;;;;2.73;89.91;100818.66;5009486;28;20058;-48
2021/01/14 10:17:17;;;;;;;18.63;10.25;;;;;;;2.59;90.22;100814.44;5015387;28;20128;-55
2021/01/14 10:19:50;;;;;;;10.65;6.78;;;;;;;2.67;90.56;100815.75;5024601;28;20045;-50
2021/01/14 10:22:21;;;;;;;13.20;7.10;;;;;;;2.64;91.05;100820.63;5018142;28;20127;-51
2021/01/14 10:24:48;;;;;;;10.73;6.13;;;;;;;2.61;91.46;100817.03;5018862;28;20140;-53
2021/01/14 10:27:20;;;;;;;7.63;4.90;;;;;;;2.77;91.48;100829.78;5018064;28;20311;-54
2021/01/14 10:29:55;;;;;;;7.57;4.53;;;;;;;3.17;89.38;100825.41;5018035;28;20045;-49
2021/01/14 10:32:23;;;;;;;6.22;3.47;;;;;;;3.16;89.38;100831.25;5020233;28;20413;-53
2021/01/14 10:34:51;;;;;;;6.65;3.38;;;;;;;3.36;88.03;100834.03;5021356;28;20049;-51
2021/01/14 10:37:25;;;;;;;6.70;3.42;;;;;;;2.85;89.69;100838.72;5022380;28;20049;-48
2021/01/14 10:39:54;;;;;;;5.55;3.42;;;;;;;3.02;88.79;100842.25;5001164;28;20060;-48
2021/01/14 10:42:35;;;;;;;7.18;3.25;;;;;;;2.73;89.91;100846.47;5006135;28;20731;-54
2021/01/14 10:45:06;;;;;;;4.70;3.03;;;;;;;3.02;89.50;100848.16;5021799;28;20041;-53
2021/01/14 10:47:34;;;;;;;5.00;2.95;;;;;;;3.02;90.95;100855.75;5019711;28;20045;-57
2021/01/14 10:50:18;;;;;;;5.95;2.65;;;;;;;2.98;89.06;100851.28;5036287;28;20041;-51
2021/01/14 10:53:04;;;;;;;7.05;3.00;;;;;;;2.82;90.63;100856.25;5025056;28;20099;-48
2021/01/14 10:55:31;;;;;;;4.05;3.47;;;;;;;2.47;91.08;100856.66;5026258;28;20044;-52
2021/01/14 10:58:02;;;;;;;6.63;3.15;;;;;;;2.60;90.72;100864.19;5026569;28;20169;-49
2021/01/14 11:00:36;;;;;;;5.43;3.53;;;;;;;2.87;90.73;100866.66;5027239;28;20104;-55
2021/01/14 11:03:12;;;;;;;4.78;3.60;;;;;;;2.73;90.94;100859.09;5015072;28;20054;-50
2021/01/14 11:05:48;;;;;;;5.95;3.50;;;;;;;2.13;92.13;100863.84;5010312;28;20081;-56
2021/01/14 11:08:42;;;;;;;6.18;3.78;;;;;;;2.28;92.00;100864.78;5010449;28;20053;-53
2021/01/14 11:11:10;;;;;;;6.38;4.53;;;;;;;2.45;91.25;100861.63;5020017;28;20045;-57
2021/01/14 11:13:52;;;;;;;7.07;4.63;;;;;;;2.35;91.85;100854.25;5018144;28;20045;-55
2021/01/14 11:16:21;;;;;;;6.25;4.30;;;;;;;2.58;92.09;100849.72;5006843;28;20058;-54
2021/01/14 11:18:51;;;;;;;8.13;5.05;;;;;;;2.03;92.19;100849.72;5006229;28;20093;-56
2021/01/14 11:21:25;;;;;;;8.20;4.20;;;;;;;2.65;92.18;100859.44;5006286;28;20546;-52
2021/01/14 11:23:51;;;;;;;8.88;5.30;;;;;;;2.02;92.61;100860.63;5006582;28;20058;-49
2021/01/14 11:26:20;;;;;;;7.90;4.82;;;;;;;2.53;91.00;100864.59;5006059;28;20053;-54
2021/01/14 11:28:48;;;;;;;9.00;5.53;;;;;;;2.30;91.52;100859.00;5004306;28;20534;-57
2021/01/14 11:31:16;;;;;;;7.68;5.25;;;;;;;2.76;88.44;100861.78;4989217;28;20088;-56
2021/01/14 11:33:43;;;;;;;9.07;5.82;;;;;;;2.48;89.20;100858.41;5005942;28;20076;-51
2021/01/14 11:36:11;;;;;;;8.10;5.63;;;;;;;2.43;89.95;100858.13;5005787;28;20065;-51
2021/01/14 11:38:38;;;;;;;7.95;5.57;;;;;;;2.74;90.64;100859.97;5003891;28;20440;-56
2021/01/14 11:41:05;;;;;;;6.97;5.45;;;;;;;2.44;90.78;100861.50;5006408;28;20342;-54
2021/01/14 11:43:33;;;;;;;10.10;5.43;;;;;;;2.52;89.80;100850.22;5005752;28;20053;-57